Página principal
METAR-TAF:

METAR-TAF

Aeroportos :

Bujumbura, Burundi

Aeroporto Internacional de Bujumbura

latitude: 03-19S, longitude: 029-19E, altura: 782 m

Observação actual do tempo

O boletim foi feito há 2 horas e 15 minutos, às 13:00 UTC
Vento 10 kt de sul
Temperatura 30°C
Humidade 46%
Pressão 1010 hPa
Visibilidade: 7000 m
Poucas nuvensa uma altura de 2500 ft, Cumulus congestus.
Nuvens fragmentadasa uma altura de 10000 ft

METAR: HBBA 161300Z 18010KT 7000 FEW025TCU BKN100 30/17 Q1010 NOSIG

Hora: 17:15 (15:15 UTC)

Previsão

O boletim foi feito há 4 horas e 15 minutos, às 11:00 UTC
Previsão válida de 16 às 12 UTC a 17 às 18 UTC
Vento kt de norte com rajadas de 20 kt
Visibilidade 10 km ou mais
sem nuvens abaixo de 1500 metros e sem cumulonimbus

TAF: HBBA 161100Z 1612/1718 18010G20KT 9999 FEW025 FEW030CB SCT100 BECMG1615/1617 00000KT CAVOK BECMG1702/1704 36002KT 9999 FEW025 BKN100 BECMG1707/1709 18010G20KT 9999 FEW025 FEW030CB BKN100 BECMG1718/1717 00000KT CAVOK

Observações e previsões do tempo de mais de 4000 aeroportos (mensagens METAR e TAF).

As estações disponíveis são os pontos amarelos e vermelhos sobre o mapa.

Mova o rato sobre o mapa para ver o nome da estação.

Depois clique no ponto para visualizar as observações e previsões meteorológicas.

Para alterar o mapa : clique nos botões verdes com uma cruz preta para aumentar o zoom; no botão verde com uma pitada de zoom; ou nas setas verdes para mapas adjacentes.


METAR-TAF: